sensor_id;sensor_type;location;lat;lon;timestamp;pressure;altitude;pressure_sealevel;temperature;humidity
51849;BME280;38952;51.090;-1.832;2024-01-15T00:00:38;99882.81;;;3.40;66.25
51849;BME280;38952;51.090;-1.832;2024-01-15T00:03:04;99872.09;;;3.34;66.36
51849;BME280;38952;51.090;-1.832;2024-01-15T00:05:30;99884.81;;;3.45;66.41
51849;BME280;38952;51.090;-1.832;2024-01-15T00:07:55;99882.09;;;3.45;66.16
51849;BME280;38952;51.090;-1.832;2024-01-15T00:10:21;99893.03;;;3.50;66.15
51849;BME280;38952;51.090;-1.832;2024-01-15T00:12:46;99881.72;;;3.41;65.60
51849;BME280;38952;51.090;-1.832;2024-01-15T00:15:12;99859.03;;;3.30;65.57
51849;BME280;38952;51.090;-1.832;2024-01-15T00:17:38;99884.19;;;3.43;65.74
51849;BME280;38952;51.090;-1.832;2024-01-15T00:20:06;99863.41;;;3.31;64.95
51849;BME280;38952;51.090;-1.832;2024-01-15T00:22:32;99881.97;;;3.40;64.95
51849;BME280;38952;51.090;-1.832;2024-01-15T00:24:58;99869.63;;;3.32;64.57
51849;BME280;38952;51.090;-1.832;2024-01-15T00:27:23;99883.00;;;3.39;65.23
51849;BME280;38952;51.090;-1.832;2024-01-15T00:29:49;99858.44;;;3.28;65.29
51849;BME280;38952;51.090;-1.832;2024-01-15T00:32:17;99850.22;;;3.23;64.51
51849;BME280;38952;51.090;-1.832;2024-01-15T00:34:42;99859.03;;;3.30;64.26
51849;BME280;38952;51.090;-1.832;2024-01-15T00:37:07;99864.56;;;3.36;64.77
51849;BME280;38952;51.090;-1.832;2024-01-15T00:39:33;99833.63;;;3.20;64.36
51849;BME280;38952;51.090;-1.832;2024-01-15T00:41:59;99855.41;;;3.37;64.56
51849;BME280;38952;51.090;-1.832;2024-01-15T00:44:26;99847.63;;;3.28;64.69
51849;BME280;38952;51.090;-1.832;2024-01-15T00:46:51;99854.22;;;3.32;64.97
51849;BME280;38952;51.090;-1.832;2024-01-15T00:49:17;99840.34;;;3.29;64.50
51849;BME280;38952;51.090;-1.832;2024-01-15T00:51:43;99811.75;;;3.09;64.82
51849;BME280;38952;51.090;-1.832;2024-01-15T00:54:08;99850.94;;;3.30;65.08
51849;BME280;38952;51.090;-1.832;2024-01-15T00:56:34;99846.00;;;3.27;65.26
51849;BME280;38952;51.090;-1.832;2024-01-15T00:59:00;99852.59;;;3.31;65.02
51849;BME280;38952;51.090;-1.832;2024-01-15T01:01:25;99850.31;;;3.28;65.07
51849;BME280;38952;51.090;-1.832;2024-01-15T01:03:51;99851.97;;;3.29;64.60
51849;BME280;38952;51.090;-1.832;2024-01-15T01:06:16;99832.34;;;3.22;64.54
51849;BME280;38952;51.090;-1.832;2024-01-15T01:08:42;99840.59;;;3.27;64.97
51849;BME280;38952;51.090;-1.832;2024-01-15T01:11:07;99835.66;;;3.24;65.39
51849;BME280;38952;51.090;-1.832;2024-01-15T01:13:32;99825.28;;;3.21;65.73
51849;BME280;38952;51.090;-1.832;2024-01-15T01:15:58;99833.53;;;3.26;64.86
51849;BME280;38952;51.090;-1.832;2024-01-15T01:18:23;99835.41;;;3.26;65.90
51849;BME280;38952;51.090;-1.832;2024-01-15T01:20:49;99828.94;;;3.27;65.54
51849;BME280;38952;51.090;-1.832;2024-01-15T01:23:14;99823.19;;;3.23;66.04
51849;BME280;38952;51.090;-1.832;2024-01-15T01:25:40;99824.84;;;3.24;65.15
51849;BME280;38952;51.090;-1.832;2024-01-15T01:28:05;99817.66;;;3.18;65.46
51849;BME280;38952;51.090;-1.832;2024-01-15T01:30:31;99818.72;;;3.17;66.05
51849;BME280;38952;51.090;-1.832;2024-01-15T01:32:56;99812.00;;;3.08;66.04
51849;BME280;38952;51.090;-1.832;2024-01-15T01:35:22;99815.75;;;3.07;66.31
51849;BME280;38952;51.090;-1.832;2024-01-15T01:37:48;99818.47;;;3.07;66.51
51849;BME280;38952;51.090;-1.832;2024-01-15T01:40:15;99788.22;;;2.86;65.97
51849;BME280;38952;51.090;-1.832;2024-01-15T01:42:41;99811.88;;;3.03;67.18
51849;BME280;38952;51.090;-1.832;2024-01-15T01:45:06;99809.03;;;2.97;67.12
51849;BME280;38952;51.090;-1.832;2024-01-15T01:47:32;99809.03;;;2.97;66.77
51849;BME280;38952;51.090;-1.832;2024-01-15T01:49:57;99801.84;;;2.91;66.94
51849;BME280;38952;51.090;-1.832;2024-01-15T01:52:23;99804.94;;;2.95;68.17
51849;BME280;38952;51.090;-1.832;2024-01-15T01:54:49;99802.00;;;2.96;67.85
51849;BME280;38952;51.090;-1.832;2024-01-15T01:57:15;99806.22;;;2.92;67.74
51849;BME280;38952;51.090;-1.832;2024-01-15T01:59:41;99807.84;;;2.93;68.43
51849;BME280;38952;51.090;-1.832;2024-01-15T02:02:06;99805.84;;;2.89;68.01
51849;BME280;38952;51.090;-1.832;2024-01-15T02:04:32;99800.19;;;2.90;68.52
51849;BME280;38952;51.090;-1.832;2024-01-15T02:06:59;99796.34;;;2.86;68.31
51849;BME280;38952;51.090;-1.832;2024-01-15T02:09:24;99801.28;;;2.89;69.19
51849;BME280;38952;51.090;-1.832;2024-01-15T02:11:50;99787.63;;;2.84;69.60
51849;BME280;38952;51.090;-1.832;2024-01-15T02:14:16;99784.34;;;2.82;69.48
51849;BME280;38952;51.090;-1.832;2024-01-15T02:16:41;99801.84;;;2.91;69.91
51849;BME280;38952;51.090;-1.832;2024-01-15T02:19:07;99798.34;;;2.91;69.41
51849;BME280;38952;51.090;-1.832;2024-01-15T02:21:32;99785.53;;;2.86;70.14
51849;BME280;38952;51.090;-1.832;2024-01-15T02:23:58;99799.16;;;2.91;70.61
51849;BME280;38952;51.090;-1.832;2024-01-15T02:26:24;99804.56;;;2.91;69.90
51849;BME280;38952;51.090;-1.832;2024-01-15T02:28:50;99806.44;;;2.91;70.30
51849;BME280;38952;51.090;-1.832;2024-01-15T02:31:16;99806.69;;;2.89;70.42
51849;BME280;38952;51.090;-1.832;2024-01-15T02:33:42;99808.91;;;2.92;70.01
51849;BME280;38952;51.090;-1.832;2024-01-15T02:36:09;99797.97;;;2.87;70.37
51849;BME280;38952;51.090;-1.832;2024-01-15T02:38:34;99812.06;;;2.89;70.67
51849;BME280;38952;51.090;-1.832;2024-01-15T02:41:00;99811.97;;;2.96;71.27
51849;BME280;38952;51.090;-1.832;2024-01-15T02:43:25;99814.44;;;2.97;71.24
51849;BME280;38952;51.090;-1.832;2024-01-15T02:45:51;99807.50;;;3.02;71.98
51849;BME280;38952;51.090;-1.832;2024-01-15T02:48:16;99809.28;;;3.08;71.77
51849;BME280;38952;51.090;-1.832;2024-01-15T02:50:42;99799.41;;;3.02;71.84
51849;BME280;38952;51.090;-1.832;2024-01-15T02:53:08;99816.09;;;2.99;72.44
51849;BME280;38952;51.090;-1.832;2024-01-15T02:55:34;99806.56;;;2.96;72.37
51849;BME280;38952;51.090;-1.832;2024-01-15T02:57:59;99803.50;;;2.92;71.85
51849;BME280;38952;51.090;-1.832;2024-01-15T03:00:26;99806.78;;;2.94;73.16
51849;BME280;38952;51.090;-1.832;2024-01-15T03:02:51;99804.56;;;2.91;72.82
51849;BME280;38952;51.090;-1.832;2024-01-15T03:05:17;99807.34;;;2.85;72.80
51849;BME280;38952;51.090;-1.832;2024-01-15T03:07:42;99809.22;;;2.84;73.06
51849;BME280;38952;51.090;-1.832;2024-01-15T03:10:08;99809.69;;;2.81;73.18
51849;BME280;38952;51.090;-1.832;2024-01-15T03:12:34;99802.28;;;2.76;73.28
51849;BME280;38952;51.090;-1.832;2024-01-15T03:14:59;99787.66;;;2.66;73.23
51849;BME280;38952;51.090;-1.832;2024-01-15T03:17:25;99804.03;;;2.71;72.62
51849;BME280;38952;51.090;-1.832;2024-01-15T03:19:50;99787.56;;;2.60;73.02
51849;BME280;38952;51.090;-1.832;2024-01-15T03:22:16;99787.31;;;2.62;73.27
51849;BME280;38952;51.090;-1.832;2024-01-15T03:24:42;99787.56;;;2.60;73.75
51849;BME280;38952;51.090;-1.832;2024-01-15T03:27:07;99801.16;;;2.66;73.72
51849;BME280;38952;51.090;-1.832;2024-01-15T03:29:33;99817.97;;;2.68;73.83
51849;BME280;38952;51.090;-1.832;2024-01-15T03:31:58;99803.28;;;2.64;73.75
51849;BME280;38952;51.090;-1.832;2024-01-15T03:34:24;99795.41;;;2.62;74.25
51849;BME280;38952;51.090;-1.832;2024-01-15T03:36:49;99801.63;;;2.62;74.65
51849;BME280;38952;51.090;-1.832;2024-01-15T03:39:15;99797.75;;;2.58;74.86
51849;BME280;38952;51.090;-1.832;2024-01-15T03:41:42;99801.06;;;2.60;74.74
51849;BME280;38952;51.090;-1.832;2024-01-15T03:44:08;99795.66;;;2.60;74.47
51849;BME280;38952;51.090;-1.832;2024-01-15T03:46:33;99793.41;;;2.57;75.06
51849;BME280;38952;51.090;-1.832;2024-01-15T03:48:59;99800.91;;;2.55;74.79
51849;BME280;38952;51.090;-1.832;2024-01-15T03:51:24;99797.16;;;2.56;74.83
51849;BME280;38952;51.090;-1.832;2024-01-15T03:53:49;99791.28;;;2.59;74.48
51849;BME280;38952;51.090;-1.832;2024-01-15T03:56:15;99795.41;;;2.62;74.42
51849;BME280;38952;51.090;-1.832;2024-01-15T03:58:40;99797.44;;;2.67;74.91
51849;BME280;38952;51.090;-1.832;2024-01-15T04:01:09;99776.59;;;2.55;74.66
51849;BME280;38952;51.090;-1.832;2024-01-15T04:03:35;99792.84;;;2.67;74.36
51849;BME280;38952;51.090;-1.832;2024-01-15T04:06:00;99796.63;;;2.66;75.01
51849;BME280;38952;51.090;-1.832;2024-01-15T04:08:25;99786.06;;;2.65;74.97
51849;BME280;38952;51.090;-1.832;2024-01-15T04:10:51;99790.03;;;2.62;75.26
51849;BME280;38952;51.090;-1.832;2024-01-15T04:13:16;99794.59;;;2.61;74.67
51849;BME280;38952;51.090;-1.832;2024-01-15T04:15:42;99777.69;;;2.54;75.23
51849;BME280;38952;51.090;-1.832;2024-01-15T04:18:07;99766.50;;;2.51;75.26
51849;BME280;38952;51.090;-1.832;2024-01-15T04:20:32;99777.22;;;2.57;75.58
51849;BME280;38952;51.090;-1.832;2024-01-15T04:22:58;99778.25;;;2.56;75.27
51849;BME280;38952;51.090;-1.832;2024-01-15T04:25:23;99772.28;;;2.54;75.31
51849;BME280;38952;51.090;-1.832;2024-01-15T04:27:49;99769.59;;;2.54;75.76
51849;BME280;38952;51.090;-1.832;2024-01-15T04:30:14;99772.28;;;2.54;75.42
51849;BME280;38952;51.090;-1.832;2024-01-15T04:32:40;99754.63;;;2.40;76.10
51849;BME280;38952;51.090;-1.832;2024-01-15T04:35:05;99763.00;;;2.50;76.04
51849;BME280;38952;51.090;-1.832;2024-01-15T04:37:31;99772.28;;;2.54;76.06
51849;BME280;38952;51.090;-1.832;2024-01-15T04:39:56;99774.38;;;2.52;76.17
51849;BME280;38952;51.090;-1.832;2024-01-15T04:42:22;99751.47;;;2.43;75.86
51849;BME280;38952;51.090;-1.832;2024-01-15T04:44:48;99758.63;;;2.49;76.27
51849;BME280;38952;51.090;-1.832;2024-01-15T04:47:13;99758.31;;;2.57;75.80
51849;BME280;38952;51.090;-1.832;2024-01-15T04:49:39;99757.25;;;2.58;76.02
51849;BME280;38952;51.090;-1.832;2024-01-15T04:52:04;99762.06;;;2.56;76.25
51849;BME280;38952;51.090;-1.832;2024-01-15T04:54:30;99761.47;;;2.54;76.26
51849;BME280;38952;51.090;-1.832;2024-01-15T04:56:55;99742.16;;;2.39;75.88
51849;BME280;38952;51.090;-1.832;2024-01-15T04:59:21;99754.28;;;2.48;75.78
51849;BME280;38952;51.090;-1.832;2024-01-15T05:01:46;99756.63;;;2.44;76.60
51849;BME280;38952;51.090;-1.832;2024-01-15T05:04:12;99760.13;;;2.45;76.37
51849;BME280;38952;51.090;-1.832;2024-01-15T05:06:38;99754.13;;;2.31;76.46
51849;BME280;38952;51.090;-1.832;2024-01-15T05:09:03;99761.81;;;2.27;76.00
51849;BME280;38952;51.090;-1.832;2024-01-15T05:11:29;99755.84;;;2.07;76.42
51849;BME280;38952;51.090;-1.832;2024-01-15T05:13:55;99769.38;;;1.88;76.92
51849;BME280;38952;51.090;-1.832;2024-01-15T05:16:20;99773.72;;;1.71;77.14
51849;BME280;38952;51.090;-1.832;2024-01-15T05:18:45;99772.25;;;1.50;77.83
51849;BME280;38952;51.090;-1.832;2024-01-15T05:21:11;99775.97;;;1.30;78.83
51849;BME280;38952;51.090;-1.832;2024-01-15T05:23:37;99776.94;;;1.11;79.36
51849;BME280;38952;51.090;-1.832;2024-01-15T05:26:03;99769.38;;;1.01;80.45
51849;BME280;38952;51.090;-1.832;2024-01-15T05:28:29;99743.06;;;0.71;80.78
51849;BME280;38952;51.090;-1.832;2024-01-15T05:30:54;99774.34;;;0.72;80.80
51849;BME280;38952;51.090;-1.832;2024-01-15T05:33:21;99772.97;;;0.56;81.16
51849;BME280;38952;51.090;-1.832;2024-01-15T05:35:47;99761.28;;;0.37;81.96
51849;BME280;38952;51.090;-1.832;2024-01-15T05:38:12;99784.28;;;0.33;81.98
51849;BME280;38952;51.090;-1.832;2024-01-15T05:40:38;99776.69;;;0.16;82.20
51849;BME280;38952;51.090;-1.832;2024-01-15T05:43:03;99778.59;;;0.09;83.16
51849;BME280;38952;51.090;-1.832;2024-01-15T05:45:30;99789.78;;;0.06;83.55
51849;BME280;38952;51.090;-1.832;2024-01-15T05:47:55;99770.75;;;0.01;83.76
51849;BME280;38952;51.090;-1.832;2024-01-15T05:50:21;99793.91;;;0.02;84.26
51849;BME280;38952;51.090;-1.832;2024-01-15T05:52:47;99795.38;;;-0.02;84.25
51849;BME280;38952;51.090;-1.832;2024-01-15T05:55:13;99804.47;;;0.04;85.16
51849;BME280;38952;51.090;-1.832;2024-01-15T05:57:38;99796.63;;;0.02;85.73
51849;BME280;38952;51.090;-1.832;2024-01-15T06:00:04;99791.88;;;-0.03;85.12
51849;BME280;38952;51.090;-1.832;2024-01-15T06:02:30;99791.22;;;0.02;85.24
51849;BME280;38952;51.090;-1.832;2024-01-15T06:04:55;99804.69;;;0.02;85.14
51849;BME280;38952;51.090;-1.832;2024-01-15T06:07:21;99797.91;;;-0.07;85.29
51849;BME280;38952;51.090;-1.832;2024-01-15T06:09:47;99807.59;;;-0.06;85.66
51849;BME280;38952;51.090;-1.832;2024-01-15T06:12:13;99807.84;;;-0.14;85.25
51849;BME280;38952;51.090;-1.832;2024-01-15T06:14:38;99802.25;;;-0.20;85.98
51849;BME280;38952;51.090;-1.832;2024-01-15T06:17:04;99817.56;;;-0.20;85.51
51849;BME280;38952;51.090;-1.832;2024-01-15T06:19:29;99820.03;;;-0.25;86.46
51849;BME280;38952;51.090;-1.832;2024-01-15T06:21:54;99815.91;;;-0.28;85.75
51849;BME280;38952;51.090;-1.832;2024-01-15T06:24:20;99816.75;;;-0.34;85.70
51849;BME280;38952;51.090;-1.832;2024-01-15T06:26:48;99815.13;;;-0.35;86.07
51849;BME280;38952;51.090;-1.832;2024-01-15T06:29:14;99820.28;;;-0.40;86.32
51849;BME280;38952;51.090;-1.832;2024-01-15T06:31:39;99820.47;;;-0.48;86.70
51849;BME280;38952;51.090;-1.832;2024-01-15T06:34:05;99819.66;;;-0.56;85.92
51849;BME280;38952;51.090;-1.832;2024-01-15T06:36:30;99812.66;;;-0.63;86.16
51849;BME280;38952;51.090;-1.832;2024-01-15T06:38:55;99819.69;;;-0.62;86.60
51849;BME280;38952;51.090;-1.832;2024-01-15T06:41:21;99819.66;;;-0.69;86.59
51849;BME280;38952;51.090;-1.832;2024-01-15T06:43:47;99820.31;;;-0.80;85.97
51849;BME280;38952;51.090;-1.832;2024-01-15T06:46:13;99813.50;;;-0.96;86.16
51849;BME280;38952;51.090;-1.832;2024-01-15T06:48:44;99829.16;;;-0.86;87.06
51849;BME280;38952;51.090;-1.832;2024-01-15T06:51:09;99806.66;;;-0.99;86.90
51849;BME280;38952;51.090;-1.832;2024-01-15T06:53:35;99831.25;;;-0.89;86.51
51849;BME280;38952;51.090;-1.832;2024-01-15T06:56:00;99824.59;;;-0.99;86.45
51849;BME280;38952;51.090;-1.832;2024-01-15T06:58:26;99830.59;;;-1.04;87.10
51849;BME280;38952;51.090;-1.832;2024-01-15T07:00:59;99834.13;;;-1.03;87.25
51849;BME280;38952;51.090;-1.832;2024-01-15T07:03:28;99818.81;;;-1.16;87.53
51849;BME280;38952;51.090;-1.832;2024-01-15T07:05:54;99836.16;;;-1.12;88.09
51849;BME280;38952;51.090;-1.832;2024-01-15T07:08:19;99821.50;;;-1.16;87.69
51849;BME280;38952;51.090;-1.832;2024-01-15T07:10:45;99815.72;;;-1.27;87.59
51849;BME280;38952;51.090;-1.832;2024-01-15T07:13:11;99830.78;;;-1.19;87.06
51849;BME280;38952;51.090;-1.832;2024-01-15T07:15:39;99834.06;;;-1.17;87.75
51849;BME280;38952;51.090;-1.832;2024-01-15T07:18:04;99830.56;;;-1.17;88.16
51849;BME280;38952;51.090;-1.832;2024-01-15T07:20:30;99834.91;;;-1.16;87.70
51849;BME280;38952;51.090;-1.832;2024-01-15T07:22:55;99827.06;;;-1.25;88.12
51849;BME280;38952;51.090;-1.832;2024-01-15T07:25:22;99815.50;;;-1.25;88.22
51849;BME280;38952;51.090;-1.832;2024-01-15T07:27:48;99814.66;;;-1.26;88.21
51849;BME280;38952;51.090;-1.832;2024-01-15T07:30:14;99822.53;;;-1.17;88.71
51849;BME280;38952;51.090;-1.832;2024-01-15T07:32:50;99844.84;;;-1.10;88.52
51849;BME280;38952;51.090;-1.832;2024-01-15T07:35:18;99841.53;;;-1.12;89.03
51849;BME280;38952;51.090;-1.832;2024-01-15T07:37:46;99814.28;;;-1.23;88.96
51849;BME280;38952;51.090;-1.832;2024-01-15T07:40:12;99848.19;;;-0.95;88.18
51849;BME280;38952;51.090;-1.832;2024-01-15T07:42:37;99828.94;;;-1.12;89.05
51849;BME280;38952;51.090;-1.832;2024-01-15T07:45:08;99859.72;;;-1.08;89.25
51849;BME280;38952;51.090;-1.832;2024-01-15T07:47:33;99834.09;;;-1.24;89.02
51849;BME280;38952;51.090;-1.832;2024-01-15T07:49:59;99827.66;;;-1.29;88.54
51849;BME280;38952;51.090;-1.832;2024-01-15T07:52:24;99849.34;;;-1.17;89.41
51849;BME280;38952;51.090;-1.832;2024-01-15T07:54:50;99847.69;;;-1.18;88.29
51849;BME280;38952;51.090;-1.832;2024-01-15T07:57:15;99853.47;;;-1.21;89.27
51849;BME280;38952;51.090;-1.832;2024-01-15T07:59:43;99842.50;;;-1.33;89.03
51849;BME280;38952;51.090;-1.832;2024-01-15T08:02:09;99864.19;;;-1.28;88.67
51849;BME280;38952;51.090;-1.832;2024-01-15T08:04:37;99867.50;;;-1.33;89.50
51849;BME280;38952;51.090;-1.832;2024-01-15T08:07:03;99865.81;;;-1.41;89.16
51849;BME280;38952;51.090;-1.832;2024-01-15T08:09:28;99864.97;;;-1.41;89.23
51849;BME280;38952;51.090;-1.832;2024-01-15T08:11:54;99877.84;;;-1.16;89.26
51849;BME280;38952;51.090;-1.832;2024-01-15T08:14:20;99874.31;;;-1.17;89.40
51849;BME280;38952;51.090;-1.832;2024-01-15T08:16:45;99882.00;;;-1.14;89.35
51849;BME280;38952;51.090;-1.832;2024-01-15T08:19:11;99888.78;;;-1.11;89.84
51849;BME280;38952;51.090;-1.832;2024-01-15T08:21:36;99884.06;;;-1.09;90.09
51849;BME280;38952;51.090;-1.832;2024-01-15T08:24:02;99886.09;;;-1.11;89.25
51849;BME280;38952;51.090;-1.832;2024-01-15T08:26:31;99883.84;;;-1.14;89.84
51849;BME280;38952;51.090;-1.832;2024-01-15T08:28:57;99890.44;;;-1.10;88.80
51849;BME280;38952;51.090;-1.832;2024-01-15T08:31:25;99893.13;;;-1.10;89.76
51849;BME280;38952;51.090;-1.832;2024-01-15T08:33:51;99897.28;;;-1.01;89.19
51849;BME280;38952;51.090;-1.832;2024-01-15T08:36:16;99897.72;;;-0.91;88.82
51849;BME280;38952;51.090;-1.832;2024-01-15T08:38:43;99881.19;;;-0.94;88.87
51849;BME280;38952;51.090;-1.832;2024-01-15T08:41:09;99892.78;;;-0.87;88.42
51849;BME280;38952;51.090;-1.832;2024-01-15T08:43:35;99907.25;;;-0.81;88.57
51849;BME280;38952;51.090;-1.832;2024-01-15T08:46:00;99902.50;;;-0.79;88.86
51849;BME280;38952;51.090;-1.832;2024-01-15T08:48:26;99884.09;;;-0.82;88.14
51849;BME280;38952;51.090;-1.832;2024-01-15T08:50:53;99873.38;;;-0.82;88.56
51849;BME280;38952;51.090;-1.832;2024-01-15T08:53:18;99897.78;;;-0.64;88.51
51849;BME280;38952;51.090;-1.832;2024-01-15T08:55:44;99900.66;;;-0.59;89.16
51849;BME280;38952;51.090;-1.832;2024-01-15T08:58:10;99905.00;;;-0.51;88.32
51849;BME280;38952;51.090;-1.832;2024-01-15T09:00:35;99914.91;;;-0.38;88.59
51849;BME280;38952;51.090;-1.832;2024-01-15T09:03:01;99903.97;;;-0.43;88.28
51849;BME280;38952;51.090;-1.832;2024-01-15T09:05:27;99895.28;;;-0.45;88.41
51849;BME280;38952;51.090;-1.832;2024-01-15T09:07:53;99914.72;;;-0.30;88.08
51849;BME280;38952;51.090;-1.832;2024-01-15T09:10:19;99904.41;;;-0.26;88.12
51849;BME280;38952;51.090;-1.832;2024-01-15T09:12:47;99899.22;;;-0.21;87.62
51849;BME280;38952;51.090;-1.832;2024-01-15T09:15:14;99921.13;;;-0.04;88.12
51849;BME280;38952;51.090;-1.832;2024-01-15T09:17:39;99927.91;;;0.05;87.63
51849;BME280;38952;51.090;-1.832;2024-01-15T09:20:05;99918.41;;;0.09;86.86
51849;BME280;38952;51.090;-1.832;2024-01-15T09:22:39;99903.13;;;0.03;86.71
51849;BME280;38952;51.090;-1.832;2024-01-15T09:25:07;99908.03;;;0.20;86.42
51849;BME280;38952;51.090;-1.832;2024-01-15T09:27:33;99919.19;;;0.37;85.70
51849;BME280;38952;51.090;-1.832;2024-01-15T09:29:59;99922.63;;;0.50;86.03
51849;BME280;38952;51.090;-1.832;2024-01-15T09:32:24;99925.09;;;0.59;84.45
51849;BME280;38952;51.090;-1.832;2024-01-15T09:34:50;99935.53;;;0.94;84.69
51849;BME280;38952;51.090;-1.832;2024-01-15T09:37:18;99934.41;;;3.08;86.36
51849;BME280;38952;51.090;-1.832;2024-01-15T09:39:43;99927.03;;;7.02;71.85
51849;BME280;38952;51.090;-1.832;2024-01-15T09:42:10;99929.44;;;10.47;57.24
51849;BME280;38952;51.090;-1.832;2024-01-15T09:44:44;99922.25;;;13.47;47.58
51849;BME280;38952;51.090;-1.832;2024-01-15T09:47:10;99906.28;;;15.26;42.14
51849;BME280;38952;51.090;-1.832;2024-01-15T09:49:37;99915.22;;;16.45;38.77
51849;BME280;38952;51.090;-1.832;2024-01-15T09:52:04;99921.50;;;17.25;36.04
51849;BME280;38952;51.090;-1.832;2024-01-15T09:54:30;99920.50;;;18.09;34.28
51849;BME280;38952;51.090;-1.832;2024-01-15T09:56:59;99952.31;;;19.18;33.76
51849;BME280;38952;51.090;-1.832;2024-01-15T09:59:29;99923.81;;;20.85;32.52
51849;BME280;38952;51.090;-1.832;2024-01-15T10:02:01;99924.69;;;21.79;30.67
51849;BME280;38952;51.090;-1.832;2024-01-15T10:04:44;99914.50;;;22.60;28.34
51849;BME280;38952;51.090;-1.832;2024-01-15T10:07:11;99942.44;;;23.66;28.30
51849;BME280;38952;51.090;-1.832;2024-01-15T10:09:43;99919.69;;;24.27;26.48
51849;BME280;38952;51.090;-1.832;2024-01-15T10:12:29;99916.47;;;24.25;24.08
51849;BME280;38952;51.090;-1.832;2024-01-15T10:14:58;99929.00;;;23.92;23.80
51849;BME280;38952;51.090;-1.832;2024-01-15T10:17:28;99949.28;;;24.51;24.89
51849;BME280;38952;51.090;-1.832;2024-01-15T10:19:57;99949.22;;;25.20;23.48
51849;BME280;38952;51.090;-1.832;2024-01-15T10:22:22;99953.72;;;25.29;22.51
51849;BME280;38952;51.090;-1.832;2024-01-15T10:24:48;99959.59;;;25.77;23.28
51849;BME280;38952;51.090;-1.832;2024-01-15T10:27:14;99957.72;;;26.22;21.44
51849;BME280;38952;51.090;-1.832;2024-01-15T10:29:41;99948.81;;;26.09;21.67
51849;BME280;38952;51.090;-1.832;2024-01-15T10:32:09;99949.28;;;26.56;20.92
51849;BME280;38952;51.090;-1.832;2024-01-15T10:34:42;99955.00;;;26.71;21.19
51849;BME280;38952;51.090;-1.832;2024-01-15T10:37:10;99969.94;;;26.41;21.32
51849;BME280;38952;51.090;-1.832;2024-01-15T10:39:47;99961.84;;;26.70;20.54
51849;BME280;38952;51.090;-1.832;2024-01-15T10:42:13;99953.78;;;27.20;20.19
51849;BME280;38952;51.090;-1.832;2024-01-15T10:44:38;99940.94;;;27.15;20.21
51849;BME280;38952;51.090;-1.832;2024-01-15T10:47:04;99961.00;;;27.91;20.88
51849;BME280;38952;51.090;-1.832;2024-01-15T10:49:30;99970.03;;;28.65;20.51
51849;BME280;38952;51.090;-1.832;2024-01-15T10:52:03;99931.84;;;29.22;18.88
51849;BME280;38952;51.090;-1.832;2024-01-15T10:54:35;99980.84;;;29.39;19.40
51849;BME280;38952;51.090;-1.832;2024-01-15T10:57:05;99952.59;;;29.82;18.91
51849;BME280;38952;51.090;-1.832;2024-01-15T10:59:31;99961.69;;;30.75;18.30
51849;BME280;38952;51.090;-1.832;2024-01-15T11:01:58;99967.47;;;31.47;17.97
51849;BME280;38952;51.090;-1.832;2024-01-15T11:04:25;99978.75;;;31.47;16.06
51849;BME280;38952;51.090;-1.832;2024-01-15T11:06:54;99984.88;;;30.97;16.84
51849;BME280;38952;51.090;-1.832;2024-01-15T11:09:20;99980.44;;;31.41;16.74
51849;BME280;38952;51.090;-1.832;2024-01-15T11:12:06;99963.03;;;31.46;17.11
51849;BME280;38952;51.090;-1.832;2024-01-15T11:14:38;99984.34;;;31.55;15.80
51849;BME280;38952;51.090;-1.832;2024-01-15T11:17:05;99989.59;;;31.53;15.88
51849;BME280;38952;51.090;-1.832;2024-01-15T11:19:37;99984.56;;;31.33;15.88
51849;BME280;38952;51.090;-1.832;2024-01-15T11:22:08;99974.41;;;30.94;15.21
51849;BME280;38952;51.090;-1.832;2024-01-15T11:24:39;99973.56;;;30.97;15.76
51849;BME280;38952;51.090;-1.832;2024-01-15T11:27:06;99966.41;;;31.72;16.05
51849;BME280;38952;51.090;-1.832;2024-01-15T11:29:34;99983.72;;;32.63;15.64
51849;BME280;38952;51.090;-1.832;2024-01-15T11:32:02;99974.19;;;33.48;15.35
51849;BME280;38952;51.090;-1.832;2024-01-15T11:35:01;99986.38;;;31.89;15.17
51849;BME280;38952;51.090;-1.832;2024-01-15T11:43:02;99981.44;;;34.30;13.77
51849;BME280;38952;51.090;-1.832;2024-01-15T11:45:27;99974.03;;;34.52;13.62
51849;BME280;38952;51.090;-1.832;2024-01-15T11:48:14;99962.66;;;35.02;12.50
51849;BME280;38952;51.090;-1.832;2024-01-15T11:50:49;99963.41;;;34.73;13.37
51849;BME280;38952;51.090;-1.832;2024-01-15T11:53:27;99950.47;;;35.63;13.40
51849;BME280;38952;51.090;-1.832;2024-01-15T11:55:58;99966.41;;;35.74;11.57
51849;BME280;38952;51.090;-1.832;2024-01-15T11:58:23;99965.75;;;34.41;11.96
51849;BME280;38952;51.090;-1.832;2024-01-15T12:00:50;99967.94;;;34.17;11.73
51849;BME280;38952;51.090;-1.832;2024-01-15T12:03:26;99948.72;;;33.88;12.08
51849;BME280;38952;51.090;-1.832;2024-01-15T12:05:54;99977.81;;;34.09;12.08
51849;BME280;38952;51.090;-1.832;2024-01-15T12:08:23;99973.63;;;33.37;12.42
51849;BME280;38952;51.090;-1.832;2024-01-15T12:10:49;99977.72;;;32.34;12.95
51849;BME280;38952;51.090;-1.832;2024-01-15T12:13:15;99982.06;;;32.66;13.22
51849;BME280;38952;51.090;-1.832;2024-01-15T12:15:44;99973.38;;;33.28;13.25
51849;BME280;38952;51.090;-1.832;2024-01-15T12:18:11;99971.66;;;33.34;12.75
51849;BME280;38952;51.090;-1.832;2024-01-15T12:20:39;99979.56;;;33.19;12.20
51849;BME280;38952;51.090;-1.832;2024-01-15T12:23:08;99967.53;;;32.09;12.71
51849;BME280;38952;51.090;-1.832;2024-01-15T12:25:35;99981.94;;;32.49;12.56
51849;BME280;38952;51.090;-1.832;2024-01-15T12:28:03;99967.56;;;32.64;12.34
51849;BME280;38952;51.090;-1.832;2024-01-15T12:30:30;99959.03;;;31.78;12.13
51849;BME280;38952;51.090;-1.832;2024-01-15T12:33:20;99954.06;;;31.17;12.72
51849;BME280;38952;51.090;-1.832;2024-01-15T12:35:48;99974.84;;;30.36;13.10
51849;BME280;38952;51.090;-1.832;2024-01-15T12:38:13;99975.97;;;29.54;14.05
51849;BME280;38952;51.090;-1.832;2024-01-15T12:40:50;99967.16;;;28.47;13.74
51849;BME280;38952;51.090;-1.832;2024-01-15T12:43:18;99961.19;;;27.46;14.90
51849;BME280;38952;51.090;-1.832;2024-01-15T12:45:44;99975.69;;;27.56;14.58
51849;BME280;38952;51.090;-1.832;2024-01-15T12:48:10;99945.41;;;27.27;14.80
51849;BME280;38952;51.090;-1.832;2024-01-15T12:50:39;99965.00;;;27.20;14.92
51849;BME280;38952;51.090;-1.832;2024-01-15T12:53:06;99982.56;;;27.10;15.33
51849;BME280;38952;51.090;-1.832;2024-01-15T12:55:33;99972.13;;;27.07;14.72
51849;BME280;38952;51.090;-1.832;2024-01-15T12:57:59;99999.78;;;27.08;14.53